CLF2 EGNS-EGAC
Flight info
| Callsign | CLF2 |
|---|---|
| Flight time | 0h 20m |
| Altitude | 6000 |
| Route | DCT NELBO |
| Aircraft | C25C/L-VGD/A |
Departure
| Time | 2026-04-29 10:05 |
|---|---|
| Airport | Isle of Man Airport (EGNS) |
Arrival
| Time | 2026-04-29 10:26 |
|---|---|
| Airport | George Best Belfast City Airport (EGAC) |
| Time | Latitude | Longitude | Altitude | Speed | Heading |
|---|---|---|---|---|---|
| 2026-04-29 09:50 | 54.08656 | -4.62814 | 34 ft | 0 kts | 220° |
| 2026-04-29 09:53 | 54.08650 | -4.62821 | 33 ft | 4 kts | 218° |
| 2026-04-29 09:53 | 54.08625 | -4.62856 | 33 ft | 5 kts | 262° |
| 2026-04-29 09:53 | 54.08631 | -4.62935 | 33 ft | 8 kts | 278° |
| 2026-04-29 09:53 | 54.08628 | -4.63039 | 33 ft | 10 kts | 252° |
| 2026-04-29 09:54 | 54.08615 | -4.63176 | 32 ft | 13 kts | 248° |
| 2026-04-29 09:54 | 54.08611 | -4.63190 | 32 ft | 0 kts | 233° |
| 2026-04-29 09:54 | 54.08596 | -4.63222 | 32 ft | 6 kts | 225° |
| 2026-04-29 09:55 | 54.08534 | -4.63306 | 32 ft | 15 kts | 213° |
| 2026-04-29 09:55 | 54.08434 | -4.63389 | 32 ft | 17 kts | 185° |
| 2026-04-29 09:55 | 54.08319 | -4.63351 | 32 ft | 9 kts | 166° |
| 2026-04-29 09:55 | 54.08316 | -4.63349 | 32 ft | 0 kts | 165° |
| 2026-04-29 10:04 | 54.08283 | -4.63344 | 32 ft | 15 kts | 167° |
| 2026-04-29 10:04 | 54.08217 | -4.63268 | 31 ft | 9 kts | 84° |
| 2026-04-29 10:04 | 54.08219 | -4.63252 | 31 ft | 0 kts | 78° |
| 2026-04-29 10:05 | 54.08220 | -4.63238 | 32 ft | 6 kts | 79° |
| 2026-04-29 10:05 | 54.08261 | -4.62912 | 34 ft | 69 kts | 78° |
| 2026-04-29 10:05 | 54.08425 | -4.61557 | 126 ft | 151 kts | 79° |
| 2026-04-29 10:05 | 54.08631 | -4.59681 | 869 ft | 175 kts | 80° |
| 2026-04-29 10:06 | 54.08931 | -4.57286 | 1111 ft | 227 kts | 79° |
| 2026-04-29 10:06 | 54.09217 | -4.54824 | 1606 ft | 207 kts | 80° |
| 2026-04-29 10:06 | 54.09554 | -4.52393 | 1740 ft | 214 kts | 77° |
| 2026-04-29 10:06 | 54.10448 | -4.50394 | 2335 ft | 224 kts | 37° |
| 2026-04-29 10:07 | 54.12021 | -4.49810 | 2708 ft | 245 kts | 2° |
| 2026-04-29 10:07 | 54.13602 | -4.50992 | 3255 ft | 259 kts | 321° |
| 2026-04-29 10:07 | 54.14569 | -4.53576 | 3756 ft | 261 kts | 292° |
| 2026-04-29 10:07 | 54.15232 | -4.56462 | 4245 ft | 262 kts | 290° |
| 2026-04-29 10:08 | 54.15850 | -4.59397 | 4681 ft | 264 kts | 290° |
| 2026-04-29 10:08 | 54.16445 | -4.62328 | 5093 ft | 264 kts | 289° |
| 2026-04-29 10:08 | 54.17032 | -4.65293 | 5498 ft | 265 kts | 289° |
| 2026-04-29 10:08 | 54.17618 | -4.68296 | 5827 ft | 267 kts | 289° |
| 2026-04-29 10:09 | 54.18206 | -4.71317 | 6132 ft | 270 kts | 289° |
| 2026-04-29 10:09 | 54.18796 | -4.74364 | 6242 ft | 268 kts | 289° |
| 2026-04-29 10:09 | 54.19376 | -4.77365 | 6267 ft | 266 kts | 289° |
| 2026-04-29 10:09 | 54.19955 | -4.80373 | 6270 ft | 267 kts | 289° |
| 2026-04-29 10:10 | 54.20532 | -4.83385 | 6266 ft | 267 kts | 289° |
| 2026-04-29 10:10 | 54.21115 | -4.86414 | 6276 ft | 268 kts | 289° |
| 2026-04-29 10:10 | 54.21694 | -4.89452 | 6276 ft | 269 kts | 289° |
| 2026-04-29 10:10 | 54.22288 | -4.92478 | 6282 ft | 269 kts | 291° |
| 2026-04-29 10:11 | 54.23093 | -4.95354 | 6283 ft | 268 kts | 304° |
| 2026-04-29 10:11 | 54.24220 | -4.97818 | 6285 ft | 266 kts | 314° |
| 2026-04-29 10:11 | 54.25449 | -5.00193 | 6289 ft | 267 kts | 313° |
| 2026-04-29 10:11 | 54.26629 | -5.02654 | 6297 ft | 268 kts | 311° |
| 2026-04-29 10:12 | 54.27778 | -5.05166 | 6293 ft | 268 kts | 310° |
| 2026-04-29 10:12 | 54.28934 | -5.07679 | 6302 ft | 268 kts | 311° |
| 2026-04-29 10:12 | 54.30097 | -5.10178 | 6307 ft | 268 kts | 311° |
| 2026-04-29 10:12 | 54.31246 | -5.12648 | 6310 ft | 268 kts | 311° |
| 2026-04-29 10:13 | 54.32410 | -5.15151 | 6312 ft | 268 kts | 311° |
| 2026-04-29 10:13 | 54.33569 | -5.17663 | 6311 ft | 268 kts | 311° |
| 2026-04-29 10:13 | 54.34732 | -5.20168 | 6316 ft | 268 kts | 311° |
| 2026-04-29 10:13 | 54.35889 | -5.22679 | 6311 ft | 268 kts | 311° |
| 2026-04-29 10:14 | 54.37056 | -5.25195 | 6228 ft | 272 kts | 310° |
| 2026-04-29 10:14 | 54.38238 | -5.27763 | 6100 ft | 276 kts | 311° |
| 2026-04-29 10:14 | 54.39434 | -5.30356 | 6021 ft | 277 kts | 310° |
| 2026-04-29 10:14 | 54.40632 | -5.32959 | 5892 ft | 279 kts | 311° |
| 2026-04-29 10:15 | 54.41843 | -5.35589 | 5569 ft | 288 kts | 310° |
| 2026-04-29 10:15 | 54.43106 | -5.38336 | 5183 ft | 297 kts | 310° |
| 2026-04-29 10:15 | 54.44352 | -5.41061 | 4788 ft | 279 kts | 310° |
| 2026-04-29 10:15 | 54.45513 | -5.43595 | 4431 ft | 262 kts | 310° |
| 2026-04-29 10:16 | 54.46621 | -5.46010 | 4084 ft | 250 kts | 310° |
| 2026-04-29 10:16 | 54.47323 | -5.47548 | 3877 ft | 243 kts | 310° |
| 2026-04-29 10:16 | 54.48680 | -5.50511 | 3456 ft | 236 kts | 309° |
| 2026-04-29 10:16 | 54.49648 | -5.52765 | 3124 ft | 234 kts | 299° |
| 2026-04-29 10:17 | 54.49922 | -5.55436 | 3010 ft | 224 kts | 264° |
| 2026-04-29 10:17 | 54.49586 | -5.58018 | 3000 ft | 222 kts | 252° |
| 2026-04-29 10:17 | 54.49141 | -5.60584 | 2996 ft | 225 kts | 250° |
| 2026-04-29 10:17 | 54.48683 | -5.63177 | 2980 ft | 228 kts | 251° |
| 2026-04-29 10:18 | 54.48229 | -5.65837 | 2877 ft | 236 kts | 251° |
| 2026-04-29 10:18 | 54.47667 | -5.68509 | 2825 ft | 238 kts | 239° |
| 2026-04-29 10:18 | 54.46900 | -5.71021 | 2823 ft | 236 kts | 242° |
| 2026-04-29 10:18 | 54.46202 | -5.73576 | 2803 ft | 233 kts | 240° |
| 2026-04-29 10:19 | 54.45495 | -5.76011 | 2808 ft | 229 kts | 240° |
| 2026-04-29 10:19 | 54.44989 | -5.78615 | 2773 ft | 236 kts | 261° |
| 2026-04-29 10:19 | 54.44843 | -5.81429 | 2816 ft | 237 kts | 263° |
| 2026-04-29 10:19 | 54.44672 | -5.84256 | 2819 ft | 237 kts | 262° |
| 2026-04-29 10:20 | 54.44485 | -5.87058 | 2806 ft | 235 kts | 262° |
| 2026-04-29 10:20 | 54.44613 | -5.89843 | 2801 ft | 234 kts | 283° |
| 2026-04-29 10:20 | 54.44994 | -5.92559 | 2805 ft | 233 kts | 283° |
| 2026-04-29 10:20 | 54.45368 | -5.95280 | 2805 ft | 233 kts | 283° |
| 2026-04-29 10:21 | 54.45729 | -5.97994 | 2810 ft | 234 kts | 283° |
| 2026-04-29 10:21 | 54.46413 | -6.00454 | 2773 ft | 232 kts | 317° |
| 2026-04-29 10:21 | 54.47829 | -6.01611 | 2664 ft | 226 kts | 353° |
| 2026-04-29 10:21 | 54.49365 | -6.01799 | 2494 ft | 214 kts | 18° |
| 2026-04-29 10:22 | 54.50572 | -6.00663 | 2345 ft | 177 kts | 40° |
| 2026-04-29 10:22 | 54.51512 | -5.99568 | 2197 ft | 156 kts | 41° |
| 2026-04-29 10:22 | 54.52371 | -5.98536 | 2033 ft | 145 kts | 40° |
| 2026-04-29 10:22 | 54.53172 | -5.97578 | 1958 ft | 141 kts | 43° |
| 2026-04-29 10:23 | 54.53977 | -5.96597 | 1778 ft | 144 kts | 41° |
| 2026-04-29 10:23 | 54.54799 | -5.95605 | 1581 ft | 145 kts | 41° |
| 2026-04-29 10:23 | 54.55634 | -5.94609 | 1398 ft | 144 kts | 39° |
| 2026-04-29 10:23 | 54.56399 | -5.93718 | 1183 ft | 123 kts | 41° |
| 2026-04-29 10:24 | 54.57070 | -5.92923 | 1022 ft | 115 kts | 39° |
| 2026-04-29 10:24 | 54.57711 | -5.92154 | 868 ft | 108 kts | 40° |
| 2026-04-29 10:24 | 54.58318 | -5.91421 | 724 ft | 105 kts | 38° |
| 2026-04-29 10:24 | 54.58911 | -5.90721 | 590 ft | 103 kts | 39° |
| 2026-04-29 10:25 | 54.59504 | -5.89998 | 456 ft | 104 kts | 37° |
| 2026-04-29 10:25 | 54.60114 | -5.89315 | 302 ft | 105 kts | 48° |
| 2026-04-29 10:25 | 54.60694 | -5.88581 | 184 ft | 102 kts | 38° |
| 2026-04-29 10:25 | 54.61252 | -5.87919 | 19 ft | 91 kts | 35° |
| 2026-04-29 10:26 | 54.61659 | -5.87428 | 15 ft | 38 kts | 34° |
| 2026-04-29 10:26 | 54.61807 | -5.87253 | 16 ft | 14 kts | 43° |
| 2026-04-29 10:26 | 54.61805 | -5.87107 | 14 ft | 14 kts | 123° |
| 2026-04-29 10:26 | 54.61755 | -5.86995 | 15 ft | 9 kts | 152° |
| 2026-04-29 10:27 | 54.61648 | -5.87087 | 15 ft | 8 kts | 210° |
| 2026-04-29 10:27 | 54.61628 | -5.87108 | 16 ft | 4 kts | 213° |
| 2026-04-29 10:27 | 54.61594 | -5.87148 | 16 ft | 9 kts | 214° |
| 2026-04-29 10:28 | 54.61523 | -5.87235 | 14 ft | 16 kts | 215° |
| 2026-04-29 10:28 | 54.61417 | -5.87375 | 13 ft | 21 kts | 231° |
| 2026-04-29 10:28 | 54.61300 | -5.87544 | 11 ft | 23 kts | 214° |
| 2026-04-29 10:28 | 54.61198 | -5.87652 | 12 ft | 13 kts | 197° |
| 2026-04-29 10:29 | 54.61147 | -5.87715 | 14 ft | 0 kts | 188° |
| 2026-04-29 10:29 | 54.61142 | -5.87715 | 14 ft | 3 kts | 177° |
| 2026-04-29 10:29 | 54.61122 | -5.87676 | 14 ft | 7 kts | 115° |
| 2026-04-29 10:29 | 54.61117 | -5.87654 | 14 ft | 0 kts | 114° |